createdAt,value
2023-04-16T00:01:18.362Z,102771.31
2023-04-16T00:03:46.911Z,102775.72
2023-04-16T00:06:15.267Z,102773.03
2023-04-16T00:08:44.695Z,102769.44
2023-04-16T00:11:12.957Z,102768.53
2023-04-16T00:13:41.290Z,102769.34
2023-04-16T00:16:09.513Z,102762.16
2023-04-16T00:18:37.539Z,102767.47
2023-04-16T00:21:05.733Z,102765.69
2023-04-16T00:23:33.823Z,102765.69
2023-04-16T00:26:03.194Z,102756.88
2023-04-16T00:28:31.335Z,102765.63
2023-04-16T00:30:59.606Z,102758.59
2023-04-16T00:33:27.725Z,102762.03
2023-04-16T00:35:55.792Z,102756.72
2023-04-16T00:38:23.883Z,102764.56
2023-04-16T00:40:51.914Z,102757.38
2023-04-16T00:43:26.122Z,102760.00
2023-04-16T00:45:56.876Z,102761.78
2023-04-16T00:48:27.860Z,102766.16
2023-04-16T00:50:56.577Z,102764.38
2023-04-16T00:53:24.806Z,102759.94
2023-04-16T00:55:53.076Z,102769.59
2023-04-16T00:58:21.441Z,102759.97
2023-04-16T01:00:52.423Z,102768.78
2023-04-16T01:03:20.754Z,102753.84
2023-04-16T01:05:50.690Z,102759.09
2023-04-16T01:08:19.981Z,102754.69
2023-04-16T01:10:48.104Z,102766.13
2023-04-16T01:13:16.127Z,102759.19
2023-04-16T01:15:44.188Z,102766.25
2023-04-16T01:18:17.546Z,102752.00
2023-04-16T01:20:47.849Z,102752.81
2023-04-16T01:23:16.103Z,102753.69
2023-04-16T01:25:44.962Z,102754.53
2023-04-16T01:28:13.198Z,102756.25
2023-04-16T01:30:41.497Z,102759.72
2023-04-16T01:33:20.518Z,102759.66
2023-04-16T01:35:49.982Z,102756.09
2023-04-16T01:38:18.365Z,102741.09
2023-04-16T01:40:46.378Z,102749.00
2023-04-16T01:43:14.538Z,102744.53
2023-04-16T01:45:42.634Z,102750.59
2023-04-16T01:48:10.807Z,102749.66
2023-04-16T01:50:38.929Z,102740.75
2023-04-16T01:53:09.711Z,102740.72
2023-04-16T01:55:37.842Z,102745.03
2023-04-16T01:58:07.923Z,102748.50
2023-04-16T02:00:36.409Z,102732.63
2023-04-16T02:03:04.982Z,102733.47
2023-04-16T02:05:33.131Z,102741.25
2023-04-16T02:08:01.637Z,102736.00
2023-04-16T02:10:31.064Z,102733.31
2023-04-16T02:12:59.462Z,102729.81
2023-04-16T02:15:27.585Z,102734.16
2023-04-16T02:17:57.120Z,102727.16
2023-04-16T02:20:26.870Z,102734.91
2023-04-16T02:22:59.683Z,102721.81
2023-04-16T02:25:28.311Z,102728.78
2023-04-16T02:27:59.640Z,102726.06
2023-04-16T02:30:36.739Z,102722.53
2023-04-16T02:33:07.413Z,102722.41
2023-04-16T02:35:37.050Z,102714.50
2023-04-16T02:38:06.475Z,102719.69
2023-04-16T02:40:36.684Z,102726.75
2023-04-16T02:43:06.090Z,102720.56
2023-04-16T02:45:34.641Z,102722.22
2023-04-16T02:48:02.731Z,102715.13
2023-04-16T02:50:30.829Z,102725.59
2023-04-16T02:52:59.068Z,102714.16
2023-04-16T02:55:28.188Z,102708.03
2023-04-16T02:57:56.143Z,102729.03
2023-04-16T03:00:25.656Z,102721.19
2023-04-16T03:02:53.878Z,102723.81
2023-04-16T03:05:22.140Z,102720.28
2023-04-16T03:07:50.730Z,102706.34
2023-04-16T03:10:18.803Z,102709.03
2023-04-16T03:12:47.369Z,102710.78
2023-04-16T03:15:15.446Z,102709.78
2023-04-16T03:17:45.034Z,102712.50
2023-04-16T03:20:14.488Z,102720.38
2023-04-16T03:22:43.079Z,102724.75
2023-04-16T03:25:11.293Z,102720.25
2023-04-16T03:27:39.960Z,102715.03
2023-04-16T03:30:09.041Z,102721.97
2023-04-16T03:32:38.248Z,102704.56
2023-04-16T03:35:09.486Z,102726.50
2023-04-16T03:37:39.813Z,102710.81
2023-04-16T03:40:09.276Z,102709.94
2023-04-16T03:42:37.451Z,102709.97
2023-04-16T03:45:09.440Z,102713.56
2023-04-16T03:47:38.664Z,102706.47
2023-04-16T03:50:08.913Z,102703.84
2023-04-16T03:52:37.808Z,102707.41
2023-04-16T03:55:06.853Z,102697.88
2023-04-16T03:57:34.935Z,102698.72
2023-04-16T04:00:09.508Z,102697.09
2023-04-16T04:05:21.928Z,102699.13
2023-04-16T04:07:50.793Z,102700.91
2023-04-16T04:10:18.848Z,102694.00
2023-04-16T04:12:47.818Z,102685.31
2023-04-16T04:15:16.220Z,102686.16
2023-04-16T04:17:44.283Z,102691.53
2023-04-16T04:20:13.548Z,102688.09
2023-04-16T04:22:46.611Z,102684.72
2023-04-16T04:25:15.219Z,102687.44
2023-04-16T04:27:43.274Z,102683.06
2023-04-16T04:30:12.445Z,102680.56
2023-04-16T04:32:41.922Z,102674.41
2023-04-16T04:35:11.072Z,102678.13
2023-04-16T04:37:39.127Z,102673.91
2023-04-16T04:40:16.207Z,102680.22
2023-04-16T04:42:44.634Z,102683.94
2023-04-16T04:45:13.134Z,102680.56
2023-04-16T04:47:42.749Z,102680.09
2023-04-16T04:50:12.069Z,102681.16
2023-04-16T04:52:40.217Z,102678.72
2023-04-16T04:55:09.580Z,102680.63
2023-04-16T04:57:38.993Z,102671.09
2023-04-16T05:00:08.853Z,102681.84
2023-04-16T05:02:51.240Z,102688.91
2023-04-16T05:05:19.424Z,102681.19
2023-04-16T05:07:47.493Z,102678.81
2023-04-16T05:10:15.845Z,102676.44
2023-04-16T05:12:46.649Z,102679.66
2023-04-16T05:15:16.489Z,102674.00
2023-04-16T05:17:44.603Z,102673.63
2023-04-16T05:20:12.776Z,102673.25
2023-04-16T05:22:41.424Z,102670.19
2023-04-16T05:25:10.004Z,102666.81
2023-04-16T05:27:38.429Z,102672.00
2023-04-16T05:30:09.438Z,102662.34
2023-04-16T05:32:38.231Z,102665.91
2023-04-16T05:35:07.189Z,102658.06
2023-04-16T05:37:35.169Z,102658.38
2023-04-16T05:40:04.200Z,102657.63
2023-04-16T05:42:32.409Z,102654.28
2023-04-16T05:45:00.403Z,102653.47
2023-04-16T05:47:29.849Z,102654.06
2023-04-16T05:49:57.933Z,102648.53
2023-04-16T05:52:26.017Z,102656.28
2023-04-16T05:54:54.093Z,102651.44
2023-04-16T05:57:22.571Z,102656.75
2023-04-16T05:59:50.706Z,102650.22
2023-04-16T06:02:18.926Z,102646.28
2023-04-16T06:04:49.749Z,102645.72
2023-04-16T06:07:17.941Z,102639.22
2023-04-16T06:09:46.354Z,102642.38
2023-04-16T06:12:15.538Z,102643.44
2023-04-16T06:14:45.437Z,102641.66
2023-04-16T06:17:21.308Z,102646.63
2023-04-16T06:19:51.967Z,102646.22
2023-04-16T06:22:30.854Z,102643.56
2023-04-16T06:25:26.568Z,102640.03
2023-04-16T06:28:02.435Z,102639.19
2023-04-16T06:30:52.015Z,102638.44
2023-04-16T06:33:27.667Z,102639.44
2023-04-16T06:36:06.666Z,102640.00
2023-04-16T06:38:44.280Z,102633.72
2023-04-16T06:41:12.659Z,102627.56
2023-04-16T06:43:41.316Z,102627.72
2023-04-16T06:46:09.608Z,102636.56
2023-04-16T06:48:37.842Z,102631.22
2023-04-16T06:51:07.216Z,102624.75
2023-04-16T06:53:50.066Z,102625.47
2023-04-16T06:56:23.503Z,102620.06
2023-04-16T06:59:01.812Z,102617.38
2023-04-16T07:01:33.558Z,102622.81
2023-04-16T07:04:02.470Z,102625.59
2023-04-16T07:06:32.586Z,102616.78
2023-04-16T07:09:01.078Z,102630.16
2023-04-16T07:11:29.405Z,102626.78
2023-04-16T07:13:57.843Z,102630.38
2023-04-16T07:16:25.873Z,102631.94
2023-04-16T07:18:54.016Z,102627.38
2023-04-16T07:21:23.247Z,102619.97
2023-04-16T07:23:52.714Z,102615.88
2023-04-16T07:26:20.901Z,102623.31
2023-04-16T07:28:48.976Z,102623.31
2023-04-16T07:31:17.259Z,102624.09
2023-04-16T07:33:45.630Z,102615.72
2023-04-16T07:36:14.179Z,102610.03
2023-04-16T07:38:42.412Z,102613.16
2023-04-16T07:41:11.840Z,102620.47
2023-04-16T07:43:39.986Z,102619.38
2023-04-16T07:46:08.143Z,102606.66
2023-04-16T07:48:36.246Z,102605.19
2023-04-16T07:51:04.506Z,102610.34
2023-04-16T07:53:32.853Z,102607.28
2023-04-16T07:56:00.832Z,102604.19
2023-04-16T07:58:30.275Z,102605.34
2023-04-16T08:00:58.462Z,102599.34
2023-04-16T08:03:26.771Z,102608.25
2023-04-16T08:05:55.286Z,102605.53
2023-04-16T08:08:23.733Z,102613.31
2023-04-16T08:10:55.851Z,102603.34
2023-04-16T08:13:24.311Z,102609.41
2023-04-16T08:15:53.868Z,102621.16
2023-04-16T08:18:22.107Z,102610.22
2023-04-16T08:20:50.252Z,102623.16
2023-04-16T08:23:18.437Z,102618.69
2023-04-16T08:25:46.470Z,102612.41
2023-04-16T08:28:14.558Z,102618.72
2023-04-16T08:30:42.644Z,102602.06
2023-04-16T08:33:12.297Z,102601.09
2023-04-16T08:35:40.455Z,102595.91
2023-04-16T08:38:08.611Z,102606.53
2023-04-16T08:40:40.176Z,102603.03
2023-04-16T08:43:12.430Z,102596.66
2023-04-16T08:45:44.905Z,102598.44
2023-04-16T08:48:14.737Z,102588.03
2023-04-16T08:50:44.640Z,102602.31
2023-04-16T08:53:20.408Z,102592.38
2023-04-16T08:55:51.276Z,102597.69
2023-04-16T08:58:21.072Z,102595.88
2023-04-16T09:00:49.992Z,102607.56
2023-04-16T09:03:21.726Z,102589.16
2023-04-16T09:05:50.849Z,102595.41
2023-04-16T09:08:19.264Z,102585.72
2023-04-16T09:10:47.604Z,102584.84
2023-04-16T09:13:17.922Z,102586.84
2023-04-16T09:15:46.226Z,102579.75
2023-04-16T09:18:14.298Z,102576.16
2023-04-16T09:20:43.765Z,102575.13
2023-04-16T09:23:12.017Z,102575.31
2023-04-16T09:25:40.148Z,102564.72
2023-04-16T09:28:08.415Z,102579.81
2023-04-16T09:30:43.114Z,102578.84
2023-04-16T09:33:16.926Z,102565.34
2023-04-16T09:35:50.890Z,102567.22
2023-04-16T09:38:19.381Z,102577.25
2023-04-16T09:40:48.522Z,102574.59
2023-04-16T09:43:18.309Z,102563.03
2023-04-16T09:45:51.849Z,102576.19
2023-04-16T09:48:30.345Z,102571.75
2023-04-16T09:51:00.546Z,102570.84
2023-04-16T09:53:30.353Z,102572.47
2023-04-16T09:55:58.908Z,102570.84
2023-04-16T09:58:27.421Z,102577.97
2023-04-16T10:00:57.374Z,102565.53
2023-04-16T10:03:31.759Z,102567.38
2023-04-16T10:06:03.513Z,102572.06
2023-04-16T10:08:31.713Z,102587.16
2023-04-16T10:11:00.445Z,102572.00
2023-04-16T10:13:31.046Z,102570.31
2023-04-16T10:15:59.302Z,102573.91
2023-04-16T10:18:28.497Z,102568.59
2023-04-16T10:20:56.698Z,102566.06
2023-04-16T10:23:26.123Z,102576.00
2023-04-16T10:25:57.650Z,102579.41
2023-04-16T10:28:27.158Z,102587.31
2023-04-16T10:30:57.278Z,102571.25
2023-04-16T10:33:29.016Z,102569.50
2023-04-16T10:36:10.573Z,102569.41
2023-04-16T10:38:47.393Z,102557.03
2023-04-16T10:41:17.968Z,102565.19
2023-04-16T10:43:48.390Z,102582.06
2023-04-16T10:46:21.209Z,102571.41
2023-04-16T10:48:51.091Z,102582.00
2023-04-16T10:51:27.943Z,102580.41
2023-04-16T10:53:58.724Z,102580.44
2023-04-16T10:56:28.195Z,102588.59
2023-04-16T10:58:57.189Z,102574.50
2023-04-16T11:01:32.479Z,102572.75
2023-04-16T11:04:03.926Z,102561.31
2023-04-16T11:06:32.990Z,102553.25
2023-04-16T11:09:05.768Z,102561.13
2023-04-16T11:11:39.426Z,102562.13
2023-04-16T11:14:10.505Z,102556.75
2023-04-16T11:16:41.906Z,102563.72
2023-04-16T11:19:17.561Z,102556.53
2023-04-16T11:21:46.534Z,102556.59
2023-04-16T11:24:16.281Z,102553.06
2023-04-16T11:27:09.800Z,102565.56
2023-04-16T11:30:05.821Z,102554.06
2023-04-16T11:32:44.721Z,102548.75
2023-04-16T11:36:04.280Z,102550.53
2023-04-16T11:38:54.886Z,102550.47
2023-04-16T11:41:47.591Z,102565.63
2023-04-16T11:44:20.453Z,102549.78
2023-04-16T11:46:55.326Z,102539.19
2023-04-16T11:49:31.550Z,102543.63
2023-04-16T11:52:00.160Z,102547.22
2023-04-16T11:54:28.167Z,102543.56
2023-04-16T11:56:57.680Z,102539.19
2023-04-16T11:59:25.713Z,102535.63
2023-04-16T12:01:56.620Z,102539.13
2023-04-16T12:04:27.303Z,102525.00
2023-04-16T12:07:11.858Z,102533.78
2023-04-16T12:09:41.451Z,102531.97
2023-04-16T12:12:31.138Z,102526.56
2023-04-16T12:15:03.664Z,102533.56
2023-04-16T12:17:34.320Z,102529.09
2023-04-16T12:20:06.124Z,102510.56
2023-04-16T12:22:37.089Z,102516.69
2023-04-16T12:25:07.009Z,102512.19
2023-04-16T12:27:49.022Z,102512.06
2023-04-16T12:30:19.939Z,102511.13
2023-04-16T12:32:52.239Z,102504.03
2023-04-16T12:35:31.624Z,102495.06
2023-04-16T12:38:00.421Z,102505.72
2023-04-16T12:40:28.573Z,102503.66
2023-04-16T12:42:58.312Z,102503.47
2023-04-16T12:45:26.561Z,102491.72
2023-04-16T12:47:55.887Z,102497.78
2023-04-16T12:50:24.360Z,102499.41
2023-04-16T12:52:52.576Z,102505.13
2023-04-16T12:55:20.880Z,102498.94
2023-04-16T12:57:49.152Z,102498.13
2023-04-16T13:00:19.257Z,102495.31
2023-04-16T13:02:48.152Z,102509.50
2023-04-16T13:05:19.310Z,102496.00
2023-04-16T13:07:47.731Z,102489.72
2023-04-16T13:10:16.881Z,102485.22
2023-04-16T13:12:46.698Z,102493.22
2023-04-16T13:15:14.803Z,102481.84
2023-04-16T13:17:44.322Z,102480.94
2023-04-16T13:20:12.516Z,102481.97
2023-04-16T13:22:41.341Z,102481.03
2023-04-16T13:25:12.876Z,102483.84
2023-04-16T13:27:41.029Z,102475.00
2023-04-16T13:30:09.667Z,102470.50
2023-04-16T13:32:37.925Z,102468.63
2023-04-16T13:35:07.960Z,102471.38
2023-04-16T13:37:36.174Z,102466.94
2023-04-16T13:40:04.430Z,102460.88
2023-04-16T13:42:32.466Z,102464.47
2023-04-16T13:45:01.388Z,102460.97
2023-04-16T13:47:29.797Z,102458.47
2023-04-16T13:49:57.877Z,102456.78
2023-04-16T13:52:27.413Z,102453.41
2023-04-16T13:54:55.625Z,102450.03
2023-04-16T13:57:23.831Z,102450.94
2023-04-16T13:59:52.024Z,102447.34
2023-04-16T14:02:22.263Z,102447.25
2023-04-16T14:04:50.552Z,102448.09
2023-04-16T14:07:21.177Z,102441.84
2023-04-16T14:09:50.697Z,102446.22
2023-04-16T14:12:18.877Z,102446.13
2023-04-16T14:14:48.165Z,102439.94
2023-04-16T14:17:16.178Z,102439.97
2023-04-16T14:19:44.226Z,102451.56
2023-04-16T14:22:12.321Z,102445.34
2023-04-16T14:24:40.475Z,102444.47
2023-04-16T14:27:09.988Z,102439.13
2023-04-16T14:29:38.331Z,102450.81
2023-04-16T14:32:07.480Z,102447.41
2023-04-16T14:34:35.623Z,102449.19
2023-04-16T14:37:04.202Z,102441.19
2023-04-16T14:39:32.357Z,102447.41
2023-04-16T14:42:00.956Z,102440.41
2023-04-16T14:44:34.196Z,102444.81
2023-04-16T14:47:02.402Z,102448.28
2023-04-16T14:49:30.646Z,102452.72
2023-04-16T14:51:58.808Z,102454.53
2023-04-16T14:54:26.863Z,102451.03
2023-04-16T14:56:54.989Z,102448.38
2023-04-16T14:59:23.071Z,102461.69
2023-04-16T15:01:52.741Z,102447.56
2023-04-16T15:04:21.032Z,102446.69
2023-04-16T15:06:50.226Z,102453.81
2023-04-16T15:09:18.345Z,102451.19
2023-04-16T15:11:46.483Z,102446.81
2023-04-16T15:14:18.263Z,102451.34
2023-04-16T15:16:47.657Z,102449.69
2023-04-16T15:19:17.721Z,102450.56
2023-04-16T15:21:48.653Z,102443.50
2023-04-16T15:24:17.076Z,102446.16
2023-04-16T15:26:45.251Z,102451.53
2023-04-16T15:29:13.446Z,102450.66
2023-04-16T15:31:41.628Z,102466.66
2023-04-16T15:34:09.959Z,102456.91
2023-04-16T15:36:39.648Z,102461.34
2023-04-16T15:39:07.848Z,102464.03
2023-04-16T15:41:46.904Z,102463.19
2023-04-16T15:44:26.414Z,102459.69
2023-04-16T15:46:58.130Z,102463.25
2023-04-16T15:49:26.482Z,102457.03
2023-04-16T15:51:56.685Z,102463.28
2023-04-16T15:54:25.585Z,102459.69
2023-04-16T15:56:53.652Z,102456.22
2023-04-16T15:59:21.824Z,102466.91
2023-04-16T16:01:50.003Z,102459.84
2023-04-16T16:04:18.260Z,102463.38
2023-04-16T16:06:46.671Z,102462.53
2023-04-16T16:09:16.212Z,102469.66
2023-04-16T16:11:44.293Z,102467.91
2023-04-16T16:14:12.387Z,102459.06
2023-04-16T16:16:40.951Z,102461.75
2023-04-16T16:19:09.329Z,102463.50
2023-04-16T16:21:37.718Z,102472.41
2023-04-16T16:24:06.052Z,102462.66
2023-04-16T16:26:35.404Z,102457.34
2023-04-16T16:29:03.470Z,102459.13
2023-04-16T16:31:31.581Z,102462.72
2023-04-16T16:33:59.725Z,102459.19
2023-04-16T16:36:28.033Z,102459.19
2023-04-16T16:38:57.008Z,102462.72
2023-04-16T16:41:25.022Z,102463.66
2023-04-16T16:43:56.266Z,102466.31
2023-04-16T16:46:24.656Z,102460.13
2023-04-16T16:48:52.738Z,102457.50
2023-04-16T16:51:21.961Z,102453.94
2023-04-16T16:53:50.720Z,102464.59
2023-04-16T16:56:18.804Z,102467.25
2023-04-16T16:58:46.946Z,102459.31
2023-04-16T17:01:16.550Z,102460.25
2023-04-16T17:03:44.751Z,102460.22
2023-04-16T17:06:13.085Z,102466.41
2023-04-16T17:08:41.335Z,102465.56
2023-04-16T17:11:09.422Z,102465.56
2023-04-16T17:13:37.583Z,102465.59
2023-04-16T17:16:05.849Z,102461.22
2023-04-16T17:18:35.601Z,102466.53
2023-04-16T17:21:03.686Z,102463.88
2023-04-16T17:23:31.738Z,102464.78
2023-04-16T17:26:01.681Z,102468.38
2023-04-16T17:28:29.812Z,102464.81
2023-04-16T17:30:57.909Z,102466.63
2023-04-16T17:33:26.075Z,102467.50
2023-04-16T17:35:55.411Z,102457.75
2023-04-16T17:38:23.525Z,102468.41
2023-04-16T17:40:51.546Z,102468.41
2023-04-16T17:43:19.548Z,102465.78
2023-04-16T17:45:47.667Z,102467.56
2023-04-16T17:48:15.864Z,102472.91
2023-04-16T17:50:44.842Z,102472.94
2023-04-16T17:53:14.543Z,102469.41
2023-04-16T17:55:51.245Z,102472.97
2023-04-16T17:58:19.386Z,102463.25
2023-04-16T18:00:47.445Z,102468.59
2023-04-16T18:03:15.907Z,102470.34
2023-04-16T18:05:44.056Z,102469.50
2023-04-16T18:08:12.085Z,102466.84
2023-04-16T18:10:41.637Z,102465.09
2023-04-16T18:13:09.799Z,102465.06
2023-04-16T18:15:38.273Z,102471.28
2023-04-16T18:18:06.714Z,102470.41
2023-04-16T18:20:34.981Z,102472.19
2023-04-16T18:23:03.093Z,102462.44
2023-04-16T18:25:35.069Z,102466.00
2023-04-16T18:28:06.248Z,102473.06
2023-04-16T18:30:34.700Z,102474.84
2023-04-16T18:35:33.957Z,102475.75
2023-04-16T18:38:02.225Z,102477.50
2023-04-16T18:40:30.463Z,102479.25
2023-04-16T18:42:58.517Z,102477.50
2023-04-16T18:45:28.340Z,102480.16
2023-04-16T18:47:58.817Z,102480.19
2023-04-16T18:50:27.193Z,102478.38
2023-04-16T18:52:55.626Z,102476.63
2023-04-16T18:55:23.876Z,102473.94
2023-04-16T18:57:54.469Z,102481.00
2023-04-16T19:00:22.746Z,102480.13
2023-04-16T19:02:52.230Z,102488.06
2023-04-16T19:05:21.149Z,102470.38
2023-04-16T19:07:49.170Z,102480.09
2023-04-16T19:10:17.403Z,102478.34
2023-04-16T19:12:45.505Z,102480.97
2023-04-16T19:15:14.935Z,102480.06
2023-04-16T19:17:43.115Z,102475.66
2023-04-16T19:20:13.061Z,102476.50
2023-04-16T19:22:41.895Z,102484.47
2023-04-16T19:25:11.121Z,102473.84
2023-04-16T19:27:39.943Z,102478.22
2023-04-16T19:30:09.282Z,102483.53
2023-04-16T19:32:37.594Z,102478.19
2023-04-16T19:35:06.285Z,102484.34
2023-04-16T19:37:35.829Z,102479.03
2023-04-16T19:40:05.883Z,102481.66
2023-04-16T19:42:34.151Z,102484.31
2023-04-16T19:45:03.050Z,102479.88
2023-04-16T19:47:31.602Z,102482.53
2023-04-16T19:49:59.766Z,102481.63
2023-04-16T19:52:27.955Z,102478.06
2023-04-16T19:55:03.106Z,102480.69
2023-04-16T19:57:33.514Z,102478.00
2023-04-16T20:00:01.587Z,102481.50
2023-04-16T20:02:32.924Z,102486.78
2023-04-16T20:05:02.142Z,102487.63
2023-04-16T20:07:31.156Z,102482.34
2023-04-16T20:09:59.199Z,102486.72
2023-04-16T20:12:28.729Z,102485.88
2023-04-16T20:14:56.773Z,102489.38
2023-04-16T20:17:24.999Z,102480.50
2023-04-16T20:19:53.020Z,102482.25
2023-04-16T20:22:21.162Z,102484.00
2023-04-16T20:24:49.283Z,102490.19
2023-04-16T20:27:19.519Z,102490.16
2023-04-16T20:29:48.999Z,102480.41
2023-04-16T20:32:17.169Z,102485.69
2023-04-16T20:34:45.302Z,102486.56
2023-04-16T20:37:13.291Z,102482.13
2023-04-16T20:39:42.153Z,102476.81
2023-04-16T20:42:10.393Z,102483.88
2023-04-16T20:44:41.250Z,102476.81
2023-04-16T20:47:11.640Z,102477.72
2023-04-16T20:49:40.331Z,102470.59
2023-04-16T20:52:08.839Z,102467.97
2023-04-16T20:54:36.871Z,102475.00
2023-04-16T20:57:05.297Z,102469.69
2023-04-16T20:59:33.489Z,102470.56
2023-04-16T21:02:01.655Z,102468.78
2023-04-16T21:04:31.373Z,102477.59
2023-04-16T21:07:03.389Z,102469.66
2023-04-16T21:09:31.688Z,102467.91
2023-04-16T21:11:59.909Z,102473.19
2023-04-16T21:14:28.324Z,102472.31
2023-04-16T21:16:56.546Z,102474.97
2023-04-16T21:19:24.652Z,102468.75
2023-04-16T21:21:54.096Z,102473.19
2023-04-16T21:24:22.236Z,102470.56
2023-04-16T21:26:50.399Z,102467.06
2023-04-16T21:29:18.413Z,102470.56
2023-04-16T21:31:46.826Z,102465.31
2023-04-16T21:34:14.942Z,102474.13
2023-04-16T21:36:43.002Z,102468.81
2023-04-16T21:39:12.421Z,102463.59
2023-04-16T21:41:40.622Z,102469.75
2023-04-16T21:44:08.577Z,102471.53
2023-04-16T21:46:36.573Z,102471.53
2023-04-16T21:49:04.668Z,102471.50
2023-04-16T21:51:33.750Z,102475.94
2023-04-16T21:54:03.426Z,102476.81
2023-04-16T21:56:32.832Z,102477.72
2023-04-16T21:59:00.873Z,102471.50
2023-04-16T22:01:28.990Z,102480.31
2023-04-16T22:03:57.148Z,102476.75
2023-04-16T22:06:26.149Z,102481.16
2023-04-16T22:08:54.285Z,102478.47
2023-04-16T22:11:22.607Z,102477.63
2023-04-16T22:13:51.996Z,102483.75
2023-04-16T22:16:20.239Z,102481.06
2023-04-16T22:18:48.370Z,102474.88
2023-04-16T22:21:16.369Z,102481.03
2023-04-16T22:23:46.923Z,102480.19
2023-04-16T22:26:15.014Z,102483.69
2023-04-16T22:28:43.050Z,102475.78
2023-04-16T22:31:12.408Z,102472.25
2023-04-16T22:33:40.505Z,102481.06
2023-04-16T22:36:09.128Z,102479.31
2023-04-16T22:38:38.752Z,102472.25
2023-04-16T22:41:06.852Z,102474.03
2023-04-16T22:43:37.053Z,102474.00
2023-04-16T22:46:06.603Z,102473.09
2023-04-16T22:48:38.726Z,102476.63
2023-04-16T22:51:09.057Z,102475.78
2023-04-16T22:53:38.301Z,102479.28
2023-04-16T22:56:06.933Z,102478.34
2023-04-16T22:58:35.157Z,102466.91
2023-04-16T23:01:03.224Z,102481.03
2023-04-16T23:03:31.930Z,102482.81
2023-04-16T23:06:01.364Z,102485.47
2023-04-16T23:08:29.372Z,102478.38
2023-04-16T23:10:57.562Z,102475.72
2023-04-16T23:13:25.788Z,102476.56
2023-04-16T23:15:53.913Z,102473.94
2023-04-16T23:18:21.967Z,102478.34
2023-04-16T23:20:52.651Z,102474.81
2023-04-16T23:23:22.016Z,102477.47
2023-04-16T23:25:53.864Z,102476.53
2023-04-16T23:28:22.385Z,102478.31
2023-04-16T23:30:52.994Z,102479.19
2023-04-16T23:33:21.198Z,102479.19
2023-04-16T23:35:49.238Z,102473.88
2023-04-16T23:38:17.297Z,102480.91
2023-04-16T23:40:46.660Z,102478.25
2023-04-16T23:43:14.667Z,102472.06
2023-04-16T23:45:42.722Z,102473.84
2023-04-16T23:48:11.098Z,102470.31
2023-04-16T23:50:39.071Z,102477.34
2023-04-16T23:53:07.053Z,102473.78
2023-04-16T23:55:35.165Z,102468.50
2023-04-16T23:58:04.619Z,102465.88
